Time;durP1;ratioP1;P1;durP2;ratioP2;P2;SDS_P1;SDS_P2;PMS_P1;PMS_P2;Temp;Humidity;BMP_temperature;BMP_pressure;BME280_temperature;BME280_humidity;BME280_pressure;Samples;Min_cycle;Max_cycle;Signal;HPM_P1;HPM_P2
2021/08/06 00:01:18;;;;;;;11.63;10.50;;;18.50;22.10;;;;;;5069937;28;20488;-58
2021/08/06 00:03:44;;;;;;;9.80;9.00;;;18.50;20.20;;;;;;5084396;28;20490;-57
2021/08/06 00:06:10;;;;;;;10.43;9.30;;;18.50;16.60;;;;;;5071075;28;20408;-56
2021/08/06 00:08:36;;;;;;;11.93;9.77;;;18.60;14.50;;;;;;5067994;28;20694;-55
2021/08/06 00:11:03;;;;;;;10.93;9.93;;;18.60;5.00;;;;;;5066403;28;21009;-56
2021/08/06 00:13:29;;;;;;;10.90;9.83;;;18.60;3.20;;;;;;5069179;28;20982;-56
2021/08/06 00:15:57;;;;;;;10.40;9.40;;;18.60;4.70;;;;;;5068247;28;20442;-56
2021/08/06 00:18:23;;;;;;;10.10;8.73;;;18.50;1.00;;;;;;5070690;28;20187;-56
2021/08/06 00:20:49;;;;;;;9.33;8.53;;;18.50;1.00;;;;;;5069557;28;20471;-56
2021/08/06 00:23:14;;;;;;;11.07;9.83;;;18.40;1.00;;;;;;5070522;28;20510;-56
2021/08/06 00:25:40;;;;;;;10.23;9.23;;;18.40;1.00;;;;;;5069743;28;20445;-56
2021/08/06 00:28:06;;;;;;;10.80;9.80;;;18.40;1.00;;;;;;5070308;28;20582;-57
2021/08/06 00:30:32;;;;;;;9.43;8.57;;;18.30;1.00;;;;;;5072563;28;20295;-56
2021/08/06 00:33:00;;;;;;;9.90;9.00;;;18.30;1.00;;;;;;5079404;28;20516;-56
2021/08/06 00:35:26;;;;;;;10.70;9.60;;;18.30;1.00;;;;;;5080359;28;20191;-56
2021/08/06 00:37:51;;;;;;;9.60;8.70;;;18.20;1.00;;;;;;5074670;28;20468;-55
2021/08/06 00:40:17;;;;;;;9.27;8.37;;;18.20;1.00;;;;;;5073041;28;20191;-56
2021/08/06 00:42:42;;;;;;;10.03;9.13;;;18.10;1.80;;;;;;5073458;28;20195;-56
2021/08/06 00:45:08;;;;;;;9.77;8.87;;;18.20;1.40;;;;;;5077514;28;20191;-57
2021/08/06 00:47:34;;;;;;;12.07;10.97;;;18.20;1.00;;;;;;5073206;28;20352;-58
2021/08/06 00:50:00;;;;;;;11.17;9.97;;;18.20;1.00;;;;;;5073077;28;20524;-57
2021/08/06 00:52:26;;;;;;;11.80;10.60;;;18.20;2.00;;;;;;5075416;28;20187;-56
2021/08/06 00:54:52;;;;;;;11.70;10.53;;;18.30;1.00;;;;;;5073106;28;20460;-56
2021/08/06 00:57:18;;;;;;;15.50;10.90;;;18.30;3.20;;;;;;5073705;28;20202;-56
2021/08/06 00:59:44;;;;;;;11.47;10.27;;;18.30;1.30;;;;;;5072992;28;20548;-56
2021/08/06 01:02:33;;;;;;;12.10;11.00;;;18.20;4.10;;;;;;5072212;28;20520;-55
2021/08/06 01:05:12;;;;;;;12.90;11.23;;;18.30;2.60;;;;;;5071435;28;20206;-56
2021/08/06 01:07:59;;;;;;;11.23;10.13;;;18.20;2.00;;;;;;5066224;28;20459;-55
2021/08/06 01:10:33;;;;;;;14.20;12.70;;;18.20;3.40;;;;;;5069240;28;20953;-57
2021/08/06 01:13:07;;;;;;;15.43;11.30;;;18.20;2.90;;;;;;5071014;28;20583;-56
2021/08/06 01:15:34;;;;;;;12.00;10.90;;;18.30;1.50;;;;;;5072616;28;20833;-56
2021/08/06 01:18:02;;;;;;;11.53;10.33;;;18.20;1.00;;;;;;5070646;28;20448;-56
2021/08/06 01:20:31;;;;;;;12.20;10.97;;;18.30;1.00;;;;;;5068046;28;20521;-56
2021/08/06 01:23:03;;;;;;;12.33;11.10;;;18.20;1.00;;;;;;5072854;28;20559;-56
2021/08/06 01:25:51;;;;;;;12.20;11.00;;;18.20;1.00;;;;;;5068661;28;20425;-58
2021/08/06 01:28:20;;;;;;;13.20;11.80;;;18.20;1.00;;;;;;5072338;28;20884;-56
2021/08/06 01:30:47;;;;;;;12.47;11.13;;;18.20;1.00;;;;;;5072121;28;20444;-56
2021/08/06 01:33:14;;;;;;;11.53;10.43;;;18.10;1.00;;;;;;5082023;28;20452;-57
2021/08/06 01:35:39;;;;;;;12.17;11.07;;;18.10;1.00;;;;;;5069141;28;21083;-57
2021/08/06 01:38:05;;;;;;;11.63;10.40;;;18.10;1.00;;;;;;5069553;28;20552;-57
2021/08/06 01:40:38;;;;;;;13.20;10.00;;;18.10;1.00;;;;;;5070378;28;20294;-55
2021/08/06 01:43:21;;;;;;;9.37;8.57;;;18.00;1.00;;;;;;5072551;28;20227;-56
2021/08/06 01:45:53;;;;;;;8.63;7.90;;;18.00;1.00;;;;;;5078403;28;20443;-57
2021/08/06 01:48:27;;;;;;;7.90;7.17;;;17.90;1.00;;;;;;5071464;28;20480;-55
2021/08/06 01:50:53;;;;;;;7.93;7.17;;;17.90;1.00;;;;;;5072368;28;20776;-55
2021/08/06 01:53:20;;;;;;;8.07;7.33;;;17.90;1.00;;;;;;5069536;28;20449;-58
2021/08/06 01:55:57;;;;;;;7.60;7.00;;;17.90;1.00;;;;;;5072303;28;20437;-57
2021/08/06 01:58:24;;;;;;;7.60;6.80;;;18.30;1.00;;;;;;5071494;28;20453;-56
2021/08/06 02:00:51;;;;;;;7.27;6.57;;;17.90;1.00;;;;;;5071665;28;20443;-57
2021/08/06 02:03:18;;;;;;;9.53;7.00;;;17.80;1.00;;;;;;5067409;28;20596;-56
2021/08/06 02:05:47;;;;;;;8.73;6.77;;;17.80;1.00;;;;;;5068691;28;20457;-57
2021/08/06 02:08:13;;;;;;;7.40;6.73;;;17.80;1.00;;;;;;5068363;28;20491;-56
2021/08/06 02:10:39;;;;;;;8.20;7.43;;;17.90;1.00;;;;;;5068577;28;20482;-56
2021/08/06 02:13:04;;;;;;;7.53;6.93;;;18.10;1.00;;;;;;5079177;28;20266;-57
2021/08/06 02:15:30;;;;;;;7.53;6.83;;;18.00;1.00;;;;;;5070824;28;20188;-57
2021/08/06 02:17:57;;;;;;;8.23;7.53;;;18.00;1.00;;;;;;5072948;28;20179;-56
2021/08/06 02:20:24;;;;;;;8.13;6.90;;;18.00;1.00;;;;;;5071614;28;20473;-56
2021/08/06 02:22:51;;;;;;;8.70;7.90;;;17.80;1.00;;;;;;5068069;28;20696;-56
2021/08/06 02:25:20;;;;;;;8.93;7.37;;;17.90;1.00;;;;;;5071456;28;20445;-56
2021/08/06 02:27:47;;;;;;;8.33;7.57;;;17.90;1.00;;;;;;5069047;28;20441;-55
2021/08/06 02:30:15;;;;;;;7.57;6.87;;;17.90;1.00;;;;;;5078691;28;20436;-56
2021/08/06 02:32:41;;;;;;;7.43;6.80;;;17.80;1.00;;;;;;5056721;28;20426;-56
2021/08/06 02:35:09;;;;;;;7.47;6.77;;;17.60;1.00;;;;;;5068202;28;20446;-57
2021/08/06 02:37:38;;;;;;;8.03;7.23;;;17.70;1.00;;;;;;5074931;28;20262;-56
2021/08/06 02:40:05;;;;;;;7.50;6.60;;;17.70;1.00;;;;;;5071600;28;20441;-56
2021/08/06 02:42:35;;;;;;;7.40;6.77;;;17.60;1.00;;;;;;5070595;28;20452;-56
2021/08/06 02:45:01;;;;;;;7.17;6.57;;;17.60;1.00;;;;;;5081066;28;20437;-56
2021/08/06 02:47:26;;;;;;;7.47;6.67;;;17.60;1.00;;;;;;5071243;28;20469;-57
2021/08/06 02:49:52;;;;;;;7.37;6.10;;;17.60;1.00;;;;;;5071063;28;20186;-56
2021/08/06 02:52:17;;;;;;;8.57;6.20;;;17.60;1.00;;;;;;5051350;28;20725;-55
2021/08/06 02:54:43;;;;;;;6.80;6.10;;;17.60;1.00;;;;;;5070466;28;20183;-56
2021/08/06 02:57:08;;;;;;;8.17;6.27;;;17.50;1.00;;;;;;5073443;28;20198;-56
2021/08/06 02:59:34;;;;;;;12.43;7.07;;;17.60;1.00;;;;;;5083021;28;20277;-56
2021/08/06 03:02:00;;;;;;;6.93;6.33;;;17.60;1.00;;;;;;5075376;28;20321;-55
2021/08/06 03:04:25;;;;;;;7.20;6.40;;;17.70;1.00;;;;;;5069612;28;20233;-56
2021/08/06 03:06:51;;;;;;;6.10;5.60;;;17.70;1.00;;;;;;5075347;28;20217;-57
2021/08/06 03:09:16;;;;;;;6.47;5.97;;;17.70;1.00;;;;;;5064335;28;20199;-57
2021/08/06 03:11:42;;;;;;;5.90;5.40;;;17.70;1.00;;;;;;5066252;28;20277;-56
2021/08/06 03:14:07;;;;;;;8.03;7.33;;;17.70;1.00;;;;;;5083456;28;20190;-56
2021/08/06 03:16:33;;;;;;;7.30;6.60;;;17.70;1.00;;;;;;5080824;28;20260;-56
2021/08/06 03:18:59;;;;;;;6.43;5.83;;;17.70;1.00;;;;;;5083146;28;20277;-55
2021/08/06 03:21:25;;;;;;;7.37;6.60;;;17.60;1.00;;;;;;5070396;28;20988;-58
2021/08/06 03:23:50;;;;;;;6.30;5.70;;;17.70;1.00;;;;;;5052525;28;20434;-56
2021/08/06 03:26:16;;;;;;;7.30;6.10;;;17.60;1.00;;;;;;5070694;28;20534;-55
2021/08/06 03:28:41;;;;;;;6.37;5.73;;;17.70;1.00;;;;;;5070599;28;20605;-56
2021/08/06 03:31:07;;;;;;;6.27;5.80;;;17.70;1.00;;;;;;5067905;28;20198;-56
2021/08/06 03:33:32;;;;;;;6.70;6.17;;;17.60;1.00;;;;;;5069194;28;20191;-57
2021/08/06 03:35:58;;;;;;;6.40;5.90;;;17.60;1.00;;;;;;5070299;28;20179;-56
2021/08/06 03:38:25;;;;;;;7.87;6.33;;;17.60;1.00;;;;;;5069834;28;20191;-57
2021/08/06 03:40:51;;;;;;;8.23;7.37;;;17.60;1.00;;;;;;5067763;28;20556;-55
2021/08/06 03:43:17;;;;;;;7.77;7.07;;;17.60;1.00;;;;;;5068175;28;20446;-56
2021/08/06 03:45:43;;;;;;;9.40;6.63;;;17.60;1.00;;;;;;5070298;28;20464;-56
2021/08/06 03:48:09;;;;;;;7.13;6.53;;;17.50;1.00;;;;;;5075214;28;20258;-56
2021/08/06 03:50:36;;;;;;;7.40;6.80;;;17.50;1.00;;;;;;5066846;28;20489;-57
2021/08/06 03:53:02;;;;;;;7.40;6.70;;;17.50;1.00;;;;;;5075345;28;20453;-56
2021/08/06 03:55:28;;;;;;;6.90;6.40;;;17.60;1.00;;;;;;5047904;28;20583;-64
2021/08/06 03:57:55;;;;;;;8.10;7.50;;;17.70;1.00;;;;;;5069489;28;20931;-56
2021/08/06 04:00:23;;;;;;;7.77;6.97;;;17.60;1.00;;;;;;5069777;28;20180;-56
2021/08/06 04:02:49;;;;;;;7.33;6.73;;;17.50;1.00;;;;;;5069645;28;20962;-56
2021/08/06 04:05:14;;;;;;;7.13;6.53;;;17.40;1.00;;;;;;5055243;28;20465;-57
2021/08/06 04:07:44;;;;;;;7.90;7.20;;;17.40;1.00;;;;;;5074088;28;20337;-55
2021/08/06 04:10:11;;;;;;;8.20;7.47;;;17.40;1.00;;;;;;5055851;28;20186;-56
2021/08/06 04:12:37;;;;;;;6.93;6.33;;;17.40;1.00;;;;;;5073929;28;20455;-56
2021/08/06 04:15:03;;;;;;;7.83;7.13;;;17.30;1.00;;;;;;5073888;28;20950;-58
2021/08/06 04:17:29;;;;;;;7.60;7.00;;;17.40;1.00;;;;;;5073649;28;20190;-56
2021/08/06 04:19:54;;;;;;;8.00;7.30;;;17.40;1.00;;;;;;5073958;28;20412;-57
2021/08/06 04:22:20;;;;;;;8.47;7.60;;;17.30;1.00;;;;;;5073004;28;20275;-56
2021/08/06 04:24:45;;;;;;;8.43;7.40;;;17.40;1.00;;;;;;5055618;28;20572;-57
2021/08/06 04:27:11;;;;;;;7.97;7.27;;;17.50;1.00;;;;;;5073430;28;20592;-56
2021/08/06 04:29:36;;;;;;;9.00;8.30;;;17.50;1.00;;;;;;5073194;28;20672;-55
2021/08/06 04:32:02;;;;;;;7.83;7.23;;;17.60;1.00;;;;;;5073474;28;20191;-56
2021/08/06 04:34:28;;;;;;;9.47;8.57;;;17.70;1.00;;;;;;5072938;28;20183;-56
2021/08/06 04:36:54;;;;;;;7.80;7.20;;;17.90;1.00;;;;;;5073649;28;20531;-56
2021/08/06 04:39:20;;;;;;;7.77;7.17;;;18.00;1.00;;;;;;5073212;28;20540;-56
2021/08/06 04:41:49;;;;;;;7.97;7.20;;;18.00;1.00;;;;;;5073837;28;20445;-55
2021/08/06 04:44:18;;;;;;;6.73;6.23;;;18.10;1.00;;;;;;5073314;28;20537;-55
2021/08/06 04:46:44;;;;;;;7.27;6.67;;;18.10;1.00;;;;;;5072041;28;21044;-56
2021/08/06 04:49:10;;;;;;;7.40;6.70;;;18.10;1.00;;;;;;5072895;28;20433;-56
2021/08/06 04:51:36;;;;;;;7.97;7.27;;;18.10;1.00;;;;;;5073885;28;20567;-56
2021/08/06 04:54:01;;;;;;;7.77;7.07;;;18.10;1.00;;;;;;5072886;28;20180;-56
2021/08/06 04:56:27;;;;;;;7.37;6.77;;;18.10;1.00;;;;;;5073403;28;20450;-56
2021/08/06 04:58:52;;;;;;;7.57;6.97;;;18.20;1.00;;;;;;5073022;28;20191;-57
2021/08/06 05:01:18;;;;;;;7.77;6.97;;;18.10;1.00;;;;;;5073355;28;20191;-56
2021/08/06 05:03:43;;;;;;;7.57;6.87;;;18.00;1.00;;;;;;5072800;28;20193;-56
2021/08/06 05:06:09;;;;;;;8.70;8.10;;;17.90;1.00;;;;;;5073070;28;20192;-58
2021/08/06 05:08:35;;;;;;;7.83;7.17;;;17.90;1.00;;;;;;5072738;28;20215;-57
2021/08/06 05:11:00;;;;;;;8.60;7.90;;;17.90;1.00;;;;;;5073192;28;20184;-55
2021/08/06 05:13:26;;;;;;;9.03;8.10;;;17.90;1.00;;;;;;5072995;28;20187;-57
2021/08/06 05:15:52;;;;;;;8.10;7.40;;;17.90;1.00;;;;;;5072104;28;20187;-56
2021/08/06 05:18:18;;;;;;;9.27;8.47;;;17.90;1.00;;;;;;5072154;28;20660;-56
2021/08/06 05:20:45;;;;;;;8.00;7.30;;;18.00;1.00;;;;;;5072214;28;20437;-57
2021/08/06 05:23:10;;;;;;;8.90;8.07;;;18.00;1.00;;;;;;5072381;28;20782;-57
2021/08/06 05:25:36;;;;;;;8.80;8.00;;;18.30;1.00;;;;;;5072831;28;20453;-55
2021/08/06 05:28:02;;;;;;;8.50;7.70;;;18.40;1.00;;;;;;5054512;28;20207;-56
2021/08/06 05:30:28;;;;;;;8.37;7.70;;;18.50;1.00;;;;;;5072709;28;20650;-57
2021/08/06 05:32:53;;;;;;;8.00;7.20;;;18.60;1.00;;;;;;5072110;28;20528;-57
2021/08/06 05:35:19;;;;;;;7.20;6.70;;;18.80;1.00;;;;;;5071607;28;20171;-57
2021/08/06 05:37:45;;;;;;;8.30;7.50;;;19.00;1.00;;;;;;5072211;28;20187;-56
2021/08/06 05:40:11;;;;;;;7.60;6.90;;;19.10;1.00;;;;;;5072380;28;20639;-55
2021/08/06 05:42:37;;;;;;;7.30;6.70;;;19.30;1.00;;;;;;5072250;28;20190;-57
2021/08/06 05:45:03;;;;;;;7.23;6.30;;;19.50;1.00;;;;;;5072755;28;20435;-56
2021/08/06 05:47:40;;;;;;;8.07;7.47;;;19.70;1.00;;;;;;5071560;28;20694;-56
2021/08/06 05:50:06;;;;;;;7.87;7.20;;;19.70;1.00;;;;;;5071431;28;20954;-56
2021/08/06 05:52:31;;;;;;;6.67;6.17;;;19.80;1.00;;;;;;5071268;28;20442;-56
2021/08/06 05:54:57;;;;;;;7.30;6.60;;;19.70;1.00;;;;;;5071876;28;20230;-57
2021/08/06 05:57:22;;;;;;;6.93;6.33;;;19.80;1.00;;;;;;5072041;28;20641;-57
2021/08/06 05:59:48;;;;;;;5.73;5.20;;;19.90;1.00;;;;;;5072188;28;20191;-57
2021/08/06 06:02:13;;;;;;;5.83;5.33;;;19.90;1.00;;;;;;5071936;28;20225;-56
2021/08/06 06:04:39;;;;;;;5.87;5.27;;;19.90;1.00;;;;;;5071644;28;20644;-56
2021/08/06 06:07:04;;;;;;;6.93;5.30;;;20.00;1.00;;;;;;5071854;28;20211;-57
2021/08/06 06:09:30;;;;;;;5.87;5.30;;;20.00;1.00;;;;;;5071652;28;20348;-57
2021/08/06 06:11:55;;;;;;;6.13;5.53;;;20.10;1.00;;;;;;5071711;28;20625;-57
2021/08/06 06:14:21;;;;;;;5.83;5.43;;;20.30;1.00;;;;;;5071698;28;20269;-57
2021/08/06 06:16:46;;;;;;;6.50;5.40;;;20.30;1.00;;;;;;5069798;28;20267;-57
2021/08/06 06:19:12;;;;;;;6.43;5.63;;;20.30;1.00;;;;;;5071616;28;20653;-56
2021/08/06 06:21:37;;;;;;;6.90;5.17;;;20.20;1.00;;;;;;5070676;28;20168;-56
2021/08/06 06:24:03;;;;;;;6.57;4.80;;;20.30;1.00;;;;;;5071483;28;20179;-58
2021/08/06 06:26:28;;;;;;;5.60;4.97;;;20.30;1.00;;;;;;5070575;28;20839;-56
2021/08/06 06:28:54;;;;;;;8.37;5.37;;;20.10;1.00;;;;;;5070467;28;20214;-56
2021/08/06 06:31:20;;;;;;;4.93;4.53;;;20.20;1.00;;;;;;5071610;28;20183;-57
2021/08/06 06:33:45;;;;;;;5.27;4.70;;;20.20;1.00;;;;;;5069835;28;20185;-56
2021/08/06 06:36:11;;;;;;;6.90;5.70;;;20.30;1.00;;;;;;5071054;28;20319;-56
2021/08/06 06:38:36;;;;;;;5.27;4.67;;;20.40;1.00;;;;;;5069423;28;20222;-57
2021/08/06 06:41:02;;;;;;;6.60;6.07;;;20.50;1.00;;;;;;5071039;28;20191;-57
2021/08/06 06:43:27;;;;;;;5.40;4.90;;;20.70;1.00;;;;;;5075693;28;20182;-59
2021/08/06 06:45:53;;;;;;;4.77;4.47;;;20.70;1.00;;;;;;5052323;28;20214;-57
2021/08/06 06:48:19;;;;;;;5.73;4.50;;;20.70;1.00;;;;;;5069905;28;20203;-57
2021/08/06 06:50:44;;;;;;;5.63;5.00;;;20.70;1.00;;;;;;5082779;28;20447;-57
2021/08/06 06:53:10;;;;;;;7.60;4.50;;;20.80;1.00;;;;;;5071055;28;20541;-56
2021/08/06 06:55:35;;;;;;;5.37;4.63;;;21.00;1.00;;;;;;5070601;28;20187;-56
2021/08/06 06:58:01;;;;;;;5.63;4.97;;;21.00;1.00;;;;;;5053166;28;20179;-56
2021/08/06 07:00:32;;;;;;;4.90;4.40;;;21.00;1.00;;;;;;5070230;28;20187;-57
2021/08/06 07:02:57;;;;;;;5.10;4.70;;;21.00;1.00;;;;;;5070851;28;20183;-57
2021/08/06 07:05:23;;;;;;;6.93;3.73;;;21.10;1.00;;;;;;5069730;28;20448;-57
2021/08/06 07:07:49;;;;;;;4.23;3.83;;;21.10;1.00;;;;;;5070523;28;20215;-56
2021/08/06 07:10:15;;;;;;;8.80;4.43;;;21.20;1.00;;;;;;5070498;28;20186;-57
2021/08/06 07:12:42;;;;;;;5.80;4.40;;;21.30;1.00;;;;;;5070733;28;20172;-56
2021/08/06 07:15:09;;;;;;;4.97;4.57;;;21.50;1.00;;;;;;5073101;28;20186;-55
2021/08/06 07:17:36;;;;;;;4.20;3.80;;;21.60;1.00;;;;;;5072393;28;20777;-55
2021/08/06 07:20:02;;;;;;;4.20;3.80;;;21.50;1.00;;;;;;5070208;28;20421;-57
2021/08/06 07:22:28;;;;;;;7.90;4.80;;;21.50;1.00;;;;;;5070448;28;20452;-56
2021/08/06 07:24:54;;;;;;;5.60;4.50;;;21.50;1.00;;;;;;5085024;28;20449;-56
2021/08/06 07:27:20;;;;;;;4.80;4.47;;;21.60;1.00;;;;;;5071232;28;20209;-57
2021/08/06 07:29:46;;;;;;;5.57;5.07;;;21.50;1.00;;;;;;5070620;28;21033;-55
2021/08/06 07:32:12;;;;;;;4.80;4.40;;;21.40;1.00;;;;;;5070111;28;20444;-57
2021/08/06 07:34:38;;;;;;;5.10;4.47;;;21.30;1.00;;;;;;5070502;28;20170;-57
2021/08/06 07:37:04;;;;;;;7.10;4.40;;;21.40;1.00;;;;;;5070186;28;20422;-56
2021/08/06 07:39:29;;;;;;;5.00;4.60;;;21.40;1.00;;;;;;5069718;28;20274;-56
2021/08/06 07:41:55;;;;;;;7.57;4.33;;;21.50;1.00;;;;;;5070864;28;20167;-56
2021/08/06 07:44:20;;;;;;;4.73;4.33;;;21.50;1.00;;;;;;5070168;28;20189;-56
2021/08/06 07:46:46;;;;;;;6.10;4.80;;;21.60;1.00;;;;;;5069747;28;20426;-56
2021/08/06 07:49:14;;;;;;;5.60;5.10;;;21.70;1.00;;;;;;5070136;28;20203;-56
2021/08/06 07:51:39;;;;;;;5.63;5.03;;;21.90;1.00;;;;;;5069711;28;20426;-57
2021/08/06 07:54:06;;;;;;;8.63;4.93;;;22.00;1.00;;;;;;5075100;28;20185;-56
2021/08/06 07:56:32;;;;;;;5.40;4.97;;;21.90;1.00;;;;;;5087548;28;20674;-58
2021/08/06 07:58:58;;;;;;;5.80;5.07;;;21.80;1.00;;;;;;5079365;28;20523;-57
2021/08/06 08:01:24;;;;;;;5.93;5.43;;;21.90;1.00;;;;;;5070368;28;20794;-55
2021/08/06 08:03:49;;;;;;;5.47;4.87;;;22.00;1.00;;;;;;5070340;28;20524;-56
2021/08/06 08:06:15;;;;;;;5.90;5.40;;;22.10;1.00;;;;;;5069902;28;20528;-57
2021/08/06 08:08:41;;;;;;;8.17;5.13;;;22.40;1.00;;;;;;5069602;28;20211;-57
2021/08/06 08:11:06;;;;;;;4.30;4.00;;;22.70;1.00;;;;;;5070352;28;20195;-57
2021/08/06 08:13:32;;;;;;;5.70;4.80;;;22.90;1.00;;;;;;5069854;28;20191;-56
2021/08/06 08:15:59;;;;;;;5.67;5.10;;;23.20;1.00;;;;;;5070387;28;20677;-56
2021/08/06 08:18:24;;;;;;;5.23;4.83;;;23.40;1.00;;;;;;5070152;28;20204;-57
2021/08/06 08:20:50;;;;;;;5.77;5.20;;;23.50;1.00;;;;;;5070044;28;20449;-56
2021/08/06 08:23:17;;;;;;;4.60;4.30;;;23.70;1.00;;;;;;5069615;28;20597;-56
2021/08/06 08:25:42;;;;;;;5.07;4.57;;;23.80;1.00;;;;;;5068925;28;20191;-56
2021/08/06 08:28:08;;;;;;;4.60;4.20;;;23.90;1.00;;;;;;5069309;28;20803;-56
2021/08/06 08:30:34;;;;;;;5.57;5.17;;;24.20;1.00;;;;;;5069673;28;20175;-56
2021/08/06 08:32:59;;;;;;;4.90;4.37;;;24.30;1.00;;;;;;5068972;28;20183;-58
2021/08/06 08:35:25;;;;;;;4.77;4.37;;;24.40;1.00;;;;;;5069415;28;20198;-57
2021/08/06 08:37:51;;;;;;;4.10;3.80;;;24.60;1.00;;;;;;5051552;28;20192;-57
2021/08/06 08:40:16;;;;;;;4.83;4.43;;;24.70;1.00;;;;;;5068989;28;20182;-56
2021/08/06 08:42:44;;;;;;;4.60;4.20;;;24.90;1.00;;;;;;5069212;28;20191;-57
2021/08/06 08:45:10;;;;;;;5.00;4.60;;;24.90;1.00;;;;;;5070056;28;20180;-56
2021/08/06 08:47:36;;;;;;;4.80;4.50;;;24.90;1.00;;;;;;5068907;28;20937;-57
2021/08/06 08:50:05;;;;;;;4.77;4.40;;;24.90;1.00;;;;;;5069362;28;20946;-56
2021/08/06 08:52:31;;;;;;;4.20;3.80;;;24.90;1.00;;;;;;5072768;28;20439;-56
2021/08/06 08:54:58;;;;;;;7.80;4.00;;;24.70;1.00;;;;;;5073119;28;20484;-56
2021/08/06 08:57:24;;;;;;;4.50;4.20;;;24.70;1.00;;;;;;5072840;28;20416;-56
2021/08/06 08:59:52;;;;;;;3.87;3.57;;;24.80;1.00;;;;;;5072982;28;20445;-56
2021/08/06 09:02:18;;;;;;;3.80;3.50;;;24.80;1.00;;;;;;5072743;28;20901;-57
2021/08/06 09:04:45;;;;;;;6.00;4.00;;;24.80;1.00;;;;;;5073087;28;20442;-57
2021/08/06 09:07:30;;;;;;;3.57;3.37;;;24.90;1.00;;;;;;5072793;28;20811;-57
2021/08/06 09:10:18;;;;;;;4.00;3.70;;;24.80;1.00;;;;;;5073096;28;21037;-58
2021/08/06 09:12:56;;;;;;;4.67;4.27;;;25.00;1.00;;;;;;5074001;28;20432;-56
2021/08/06 09:15:44;;;;;;;4.43;4.13;;;25.10;1.00;;;;;;5084881;28;20497;-57
2021/08/06 09:18:27;;;;;;;3.93;3.63;;;25.10;1.00;;;;;;5078605;28;20426;-57
2021/08/06 09:20:55;;;;;;;3.90;3.60;;;24.80;1.00;;;;;;5073000;28;20412;-57
2021/08/06 09:23:41;;;;;;;4.23;3.93;;;24.80;1.00;;;;;;5071947;28;20446;-56
2021/08/06 09:26:09;;;;;;;3.80;3.50;;;24.70;1.00;;;;;;5070013;28;20587;-56
2021/08/06 09:29:02;;;;;;;4.13;3.83;;;24.60;1.00;;;;;;5037606;28;20464;-57
2021/08/06 09:31:29;;;;;;;6.97;3.53;;;24.60;1.00;;;;;;5070505;28;20900;-58
2021/08/06 09:34:24;;;;;;;3.80;3.60;;;24.70;1.00;;;;;;5077334;28;20740;-56
2021/08/06 09:37:00;;;;;;;3.40;3.10;;;24.70;1.00;;;;;;5072661;28;20498;-57
2021/08/06 09:39:35;;;;;;;3.63;3.43;;;24.80;1.00;;;;;;5092536;28;20435;-56
2021/08/06 09:42:00;;;;;;;4.20;3.17;;;24.90;1.00;;;;;;5083649;28;20941;-57
2021/08/06 09:44:28;;;;;;;3.50;3.20;;;25.00;1.00;;;;;;5071844;28;20488;-55
2021/08/06 09:46:54;;;;;;;3.00;2.80;;;25.30;1.00;;;;;;5071205;28;20306;-56
2021/08/06 09:49:20;;;;;;;2.90;2.70;;;25.40;1.00;;;;;;5072813;28;20419;-56
2021/08/06 09:51:50;;;;;;;3.17;2.97;;;25.50;1.00;;;;;;5071484;28;20441;-58
2021/08/06 09:54:25;;;;;;;2.70;2.50;;;25.60;1.00;;;;;;5054093;28;20344;-57
2021/08/06 09:57:03;;;;;;;3.47;3.00;;;25.70;1.00;;;;;;5087473;28;20435;-57
2021/08/06 09:59:30;;;;;;;3.30;3.10;;;25.70;1.00;;;;;;5083058;28;20432;-56
2021/08/06 10:02:14;;;;;;;2.87;2.67;;;25.80;1.00;;;;;;5092272;28;20421;-57
2021/08/06 10:04:42;;;;;;;2.70;2.50;;;26.10;1.00;;;;;;5092702;28;20780;-56
2021/08/06 10:07:08;;;;;;;2.50;2.30;;;26.20;1.00;;;;;;5091935;28;20431;-56
2021/08/06 10:09:33;;;;;;;3.00;2.80;;;26.30;1.00;;;;;;5079427;28;20455;-56
2021/08/06 10:11:59;;;;;;;3.13;2.90;;;26.50;1.00;;;;;;5072062;28;20812;-56
2021/08/06 10:14:25;;;;;;;3.50;3.00;;;26.50;1.00;;;;;;5071777;28;20226;-57
2021/08/06 10:16:51;;;;;;;2.90;2.70;;;26.80;1.00;;;;;;5072189;28;20191;-57
2021/08/06 10:19:16;;;;;;;3.23;3.03;;;26.90;1.00;;;;;;5071826;28;20183;-56
2021/08/06 10:21:42;;;;;;;2.90;2.70;;;26.90;1.00;;;;;;5076441;28;20438;-54
2021/08/06 10:24:13;;;;;;;3.00;2.80;;;26.90;1.00;;;;;;5071569;28;20328;-56
2021/08/06 10:26:46;;;;;;;3.40;3.10;;;26.90;1.00;;;;;;5071474;28;20472;-56
2021/08/06 10:29:15;;;;;;;2.67;2.47;;;26.80;1.00;;;;;;5070542;28;20484;-57
2021/08/06 10:31:43;;;;;;;3.17;2.90;;;26.90;1.00;;;;;;5070324;28;20788;-54
2021/08/06 10:34:11;;;;;;;2.63;2.10;;;26.90;1.00;;;;;;5079746;28;20429;-56
2021/08/06 10:36:37;;;;;;;2.60;2.40;;;26.50;1.00;;;;;;5071160;28;20911;-55
2021/08/06 10:39:03;;;;;;;2.67;2.23;;;26.30;1.00;;;;;;5071711;28;20428;-57
2021/08/06 10:41:49;;;;;;;3.07;2.87;;;26.20;1.00;;;;;;5071157;28;20385;-57
2021/08/06 10:44:15;;;;;;;2.97;2.67;;;26.30;1.00;;;;;;5071320;28;20197;-55
2021/08/06 10:47:06;;;;;;;2.70;2.50;;;26.60;1.00;;;;;;5076783;28;20480;-57
2021/08/06 10:49:32;;;;;;;2.50;2.30;;;26.80;1.00;;;;;;5051709;28;20200;-57
2021/08/06 10:52:11;;;;;;;3.17;2.87;;;27.20;1.00;;;;;;5070147;28;20913;-56
2021/08/06 10:54:37;;;;;;;2.40;2.20;;;27.50;1.00;;;;;;5070515;28;20415;-56
2021/08/06 10:57:22;;;;;;;2.87;2.67;;;27.60;1.00;;;;;;5071180;28;20407;-58
2021/08/06 10:59:48;;;;;;;2.90;2.70;;;27.80;1.00;;;;;;5070879;28;20655;-56
2021/08/06 11:02:41;;;;;;;2.73;2.53;;;27.90;1.00;;;;;;5070368;28;20436;-56
2021/08/06 11:05:36;;;;;;;3.47;3.27;;;28.20;1.00;;;;;;5068171;28;20469;-56
2021/08/06 11:08:23;;;;;;;2.77;2.57;;;28.90;1.00;;;;;;5070621;28;20488;-57
2021/08/06 11:10:51;;;;;;;2.63;2.43;;;29.00;1.00;;;;;;5070360;28;20444;-56
2021/08/06 11:13:32;;;;;;;2.90;2.70;;;29.00;1.00;;;;;;5052439;28;20427;-58
2021/08/06 11:16:08;;;;;;;2.97;2.67;;;28.60;1.00;;;;;;5069377;28;20433;-57
2021/08/06 11:18:33;;;;;;;2.80;2.60;;;28.20;1.00;;;;;;5070299;28;20436;-56
2021/08/06 11:21:00;;;;;;;3.40;3.10;;;27.90;1.00;;;;;;5069890;28;20790;-56
2021/08/06 11:23:27;;;;;;;2.70;2.50;;;28.10;1.00;;;;;;5069689;28;20233;-57
2021/08/06 11:25:53;;;;;;;4.93;3.30;;;28.40;1.00;;;;;;5070289;28;20442;-56
2021/08/06 11:28:26;;;;;;;3.00;2.70;;;28.60;1.00;;;;;;5070755;28;20506;-56
2021/08/06 11:30:51;;;;;;;3.00;2.80;;;29.10;1.00;;;;;;5070725;28;20411;-56
2021/08/06 11:33:17;;;;;;;3.47;3.17;;;29.20;1.00;;;;;;5070520;28;20433;-56
2021/08/06 11:35:45;;;;;;;2.40;2.30;;;29.40;1.00;;;;;;5070417;28;20175;-56
2021/08/06 11:38:16;;;;;;;2.83;2.63;;;29.20;1.00;;;;;;5072315;28;20658;-57
2021/08/06 11:40:47;;;;;;;2.70;2.50;;;29.20;1.00;;;;;;5070765;28;20469;-58
2021/08/06 11:43:14;;;;;;;3.17;2.87;;;29.10;1.00;;;;;;5089604;28;20445;-57
2021/08/06 11:45:41;;;;;;;3.00;2.80;;;28.90;1.00;;;;;;5070055;28;20449;-57
2021/08/06 11:48:08;;;;;;;3.10;2.90;;;29.00;1.00;;;;;;5068895;28;20460;-58
2021/08/06 11:50:45;;;;;;;2.60;2.40;;;29.30;1.00;;;;;;5069883;28;20423;-57
2021/08/06 11:53:19;;;;;;;3.47;3.17;;;29.30;1.00;;;;;;5068499;28;20414;-58
2021/08/06 11:55:47;;;;;;;3.30;3.00;;;29.40;1.00;;;;;;5069866;28;20501;-56
2021/08/06 11:58:14;;;;;;;3.70;3.40;;;29.60;1.00;;;;;;5069924;28;20442;-56
2021/08/06 12:00:43;;;;;;;4.00;3.70;;;29.90;1.00;;;;;;5069744;28;20464;-56
2021/08/06 12:03:13;;;;;;;8.63;7.83;;;29.90;1.00;;;;;;5069759;28;20420;-57
2021/08/06 12:05:42;;;;;;;9.80;8.90;;;29.80;1.00;;;;;;5070034;28;20849;-56
2021/08/06 12:08:32;;;;;;;10.93;9.93;;;29.60;1.00;;;;;;5081517;28;20493;-56
2021/08/06 12:11:06;;;;;;;11.50;10.30;;;29.40;1.00;;;;;;5057993;28;20799;-56
2021/08/06 12:13:50;;;;;;;10.00;8.97;;;29.30;1.00;;;;;;5070805;28;20499;-57
2021/08/06 12:16:19;;;;;;;10.40;9.40;;;29.10;1.00;;;;;;5070325;28;20412;-56
2021/08/06 12:18:53;;;;;;;12.47;10.40;;;28.60;1.00;;;;;;5070311;28;20840;-56
2021/08/06 12:21:22;;;;;;;17.43;14.03;;;28.20;1.00;;;;;;5052341;28;20416;-56
2021/08/06 12:23:53;;;;;;;14.27;12.77;;;28.00;1.00;;;;;;5070245;28;20467;-57
2021/08/06 12:26:33;;;;;;;13.97;12.70;;;27.80;1.00;;;;;;5074181;28;20437;-56
2021/08/06 12:29:13;;;;;;;14.70;13.30;;;27.10;1.00;;;;;;5074036;28;20788;-56
2021/08/06 12:32:01;;;;;;;15.67;14.07;;;26.30;1.00;;;;;;5074267;28;20425;-56
2021/08/06 12:34:39;;;;;;;17.50;15.70;;;25.60;1.00;;;;;;5055705;28;20441;-58
2021/08/06 12:37:09;;;;;;;17.07;15.37;;;25.00;1.00;;;;;;5073927;28;20433;-57
2021/08/06 12:39:46;;;;;;;16.20;14.60;;;24.60;1.00;;;;;;5073779;28;20499;-57
2021/08/06 12:42:20;;;;;;;14.53;13.20;;;24.40;1.00;;;;;;5093249;28;20778;-57
2021/08/06 12:44:57;;;;;;;12.60;11.40;;;24.30;1.00;;;;;;5094288;28;20497;-57
2021/08/06 12:47:24;;;;;;;11.30;10.30;;;24.40;1.00;;;;;;5075352;28;20460;-58
2021/08/06 12:49:57;;;;;;;10.73;9.63;;;24.50;1.00;;;;;;5073833;28;20464;-57
2021/08/06 12:52:31;;;;;;;9.67;8.77;;;24.70;1.00;;;;;;5073568;28;20416;-57
2021/08/06 12:55:00;;;;;;;11.47;10.40;;;24.70;1.00;;;;;;5073607;28;20891;-57
2021/08/06 12:57:42;;;;;;;10.63;9.70;;;24.80;1.00;;;;;;5073916;28;20433;-57
2021/08/06 13:00:16;;;;;;;8.03;7.23;;;25.30;1.00;;;;;;5073894;28;20433;-57